sensor_id;sensor_type;location;lat;lon;timestamp;pressure;altitude;pressure_sealevel;temperature;humidity
64644;BME280;51056;50.330;7.914;2023-02-22T00:02:34;100680.16;;;3.94;nan
64644;BME280;51056;50.330;7.914;2023-02-22T00:05:40;100685.31;;;3.96;nan
64644;BME280;51056;50.330;7.914;2023-02-22T00:08:46;100676.78;;;3.92;nan
64644;BME280;51056;50.330;7.914;2023-02-22T00:11:51;100682.16;;;3.83;nan
64644;BME280;51056;50.330;7.914;2023-02-22T00:14:55;100680.50;;;3.81;nan
64644;BME280;51056;50.330;7.914;2023-02-22T00:17:58;100682.09;;;3.86;nan
64644;BME280;51056;50.330;7.914;2023-02-22T00:21:06;100676.84;;;3.89;nan
64644;BME280;51056;50.330;7.914;2023-02-22T00:24:12;100672.41;;;3.94;nan
64644;BME280;51056;50.330;7.914;2023-02-22T00:27:24;100670.72;;;3.92;nan
64644;BME280;51056;50.330;7.914;2023-02-22T00:30:28;100664.72;;;3.91;nan
64644;BME280;51056;50.330;7.914;2023-02-22T00:33:33;100662.00;;;3.97;nan
64644;BME280;51056;50.330;7.914;2023-02-22T00:36:38;100670.59;;;3.98;nan
64644;BME280;51056;50.330;7.914;2023-02-22T00:39:47;100663.84;;;3.92;nan
64644;BME280;51056;50.330;7.914;2023-02-22T00:42:52;100665.63;;;3.89;nan
64644;BME280;51056;50.330;7.914;2023-02-22T00:45:55;100664.78;;;3.88;nan
64644;BME280;51056;50.330;7.914;2023-02-22T00:49:01;100661.41;;;3.86;nan
64644;BME280;51056;50.330;7.914;2023-02-22T00:52:10;100666.56;;;3.86;nan
64644;BME280;51056;50.330;7.914;2023-02-22T00:55:18;100664.84;;;3.85;nan
64644;BME280;51056;50.330;7.914;2023-02-22T00:58:22;100655.47;;;3.81;nan
64644;BME280;51056;50.330;7.914;2023-02-22T01:01:26;100658.00;;;3.84;nan
64644;BME280;51056;50.330;7.914;2023-02-22T01:04:31;100651.91;;;3.85;nan
64644;BME280;51056;50.330;7.914;2023-02-22T01:07:34;100650.16;;;3.87;nan
64644;BME280;51056;50.330;7.914;2023-02-22T01:10:44;100649.97;;;3.95;nan
64644;BME280;51056;50.330;7.914;2023-02-22T01:13:48;100647.56;;;3.87;nan
64644;BME280;51056;50.330;7.914;2023-02-22T01:16:53;100642.47;;;3.83;nan
64644;BME280;51056;50.330;7.914;2023-02-22T01:19:56;100633.16;;;3.76;nan
64644;BME280;51056;50.330;7.914;2023-02-22T01:23:01;100628.84;;;3.76;nan
64644;BME280;51056;50.330;7.914;2023-02-22T01:26:05;100634.78;;;3.81;nan
64644;BME280;51056;50.330;7.914;2023-02-22T01:29:12;100632.25;;;3.78;nan
64644;BME280;51056;50.330;7.914;2023-02-22T01:32:18;100628.84;;;3.76;nan
64644;BME280;51056;50.330;7.914;2023-02-22T01:35:28;100622.13;;;3.69;nan
64644;BME280;51056;50.330;7.914;2023-02-22T01:38:31;100618.69;;;3.68;nan
64644;BME280;51056;50.330;7.914;2023-02-22T01:41:36;100620.50;;;3.63;nan
64644;BME280;51056;50.330;7.914;2023-02-22T01:44:41;100610.09;;;3.68;nan
64644;BME280;51056;50.330;7.914;2023-02-22T01:47:44;100609.03;;;3.75;nan
64644;BME280;51056;50.330;7.914;2023-02-22T01:50:58;100605.69;;;3.71;nan
64644;BME280;51056;50.330;7.914;2023-02-22T01:54:09;100595.28;;;3.75;nan
64644;BME280;51056;50.330;7.914;2023-02-22T01:57:23;100595.13;;;3.81;nan
64644;BME280;51056;50.330;7.914;2023-02-22T02:00:33;100591.78;;;3.77;nan
64644;BME280;51056;50.330;7.914;2023-02-22T02:03:38;100591.84;;;3.72;nan
64644;BME280;51056;50.330;7.914;2023-02-22T02:06:46;100586.75;;;3.69;nan
64644;BME280;51056;50.330;7.914;2023-02-22T02:09:55;100584.09;;;3.72;nan
64644;BME280;51056;50.330;7.914;2023-02-22T02:13:00;100588.44;;;3.72;nan
64644;BME280;51056;50.330;7.914;2023-02-22T02:16:08;100582.44;;;3.70;nan
64644;BME280;51056;50.330;7.914;2023-02-22T02:19:33;100584.09;;;3.74;nan
64644;BME280;51056;50.330;7.914;2023-02-22T02:33:47;100581.44;;;3.77;nan
64644;BME280;51056;50.330;7.914;2023-02-22T02:40:21;100576.97;;;3.82;nan
64644;BME280;51056;50.330;7.914;2023-02-22T02:43:46;100574.44;;;3.81;nan
64644;BME280;51056;50.330;7.914;2023-02-22T02:47:04;100566.50;;;3.88;nan
64644;BME280;51056;50.330;7.914;2023-02-22T02:50:27;100576.03;;;3.86;nan
64644;BME280;51056;50.330;7.914;2023-02-22T02:53:39;100573.59;;;3.80;nan
64644;BME280;51056;50.330;7.914;2023-02-22T02:56:44;100564.09;;;3.81;nan
64644;BME280;51056;50.330;7.914;2023-02-22T02:59:54;100567.53;;;3.81;nan
64644;BME280;51056;50.330;7.914;2023-02-22T03:14:21;100563.91;;;3.88;nan
64644;BME280;51056;50.330;7.914;2023-02-22T03:28:06;100566.50;;;3.88;nan
64644;BME280;51056;50.330;7.914;2023-02-22T03:31:18;100565.63;;;3.88;nan
64644;BME280;51056;50.330;7.914;2023-02-22T03:34:27;100559.63;;;3.87;nan
64644;BME280;51056;50.330;7.914;2023-02-22T03:37:35;100563.06;;;3.88;nan
64644;BME280;51056;50.330;7.914;2023-02-22T03:40:44;100558.72;;;3.90;nan
64644;BME280;51056;50.330;7.914;2023-02-22T03:43:56;100557.84;;;3.89;nan
64644;BME280;51056;50.330;7.914;2023-02-22T03:47:04;100560.47;;;3.88;nan
64644;BME280;51056;50.330;7.914;2023-02-22T03:50:16;100557.81;;;3.91;nan
64644;BME280;51056;50.330;7.914;2023-02-22T03:53:20;100547.44;;;3.92;nan
64644;BME280;51056;50.330;7.914;2023-02-22T03:56:38;100553.63;;;3.85;nan
64644;BME280;51056;50.330;7.914;2023-02-22T03:59:42;100550.09;;;3.89;nan
64644;BME280;51056;50.330;7.914;2023-02-22T04:02:46;100551.78;;;3.90;nan
64644;BME280;51056;50.330;7.914;2023-02-22T04:05:55;100550.81;;;3.94;nan
64644;BME280;51056;50.330;7.914;2023-02-22T04:08:59;100547.19;;;4.02;nan
64644;BME280;51056;50.330;7.914;2023-02-22T04:12:03;100558.22;;;4.08;nan
64644;BME280;51056;50.330;7.914;2023-02-22T04:15:15;100546.97;;;4.11;nan
64644;BME280;51056;50.330;7.914;2023-02-22T04:18:20;100552.81;;;4.17;nan
64644;BME280;51056;50.330;7.914;2023-02-22T04:21:24;100551.19;;;4.15;nan
64644;BME280;51056;50.330;7.914;2023-02-22T04:24:27;100545.13;;;4.14;nan
64644;BME280;51056;50.330;7.914;2023-02-22T04:27:31;100540.88;;;4.13;nan
64644;BME280;51056;50.330;7.914;2023-02-22T04:30:34;100545.28;;;4.10;nan
64644;BME280;51056;50.330;7.914;2023-02-22T04:33:39;100537.44;;;4.13;nan
64644;BME280;51056;50.330;7.914;2023-02-22T04:36:44;100534.84;;;4.13;nan
64644;BME280;51056;50.330;7.914;2023-02-22T04:39:50;100535.66;;;4.15;nan
64644;BME280;51056;50.330;7.914;2023-02-22T04:42:55;100541.63;;;4.17;nan
64644;BME280;51056;50.330;7.914;2023-02-22T04:45:58;100535.53;;;4.19;nan
64644;BME280;51056;50.330;7.914;2023-02-22T04:49:02;100537.28;;;4.19;nan
64644;BME280;51056;50.330;7.914;2023-02-22T04:52:07;100539.78;;;4.22;nan
64644;BME280;51056;50.330;7.914;2023-02-22T04:55:13;100540.63;;;4.23;nan
64644;BME280;51056;50.330;7.914;2023-02-22T04:58:18;100539.88;;;4.19;nan
64644;BME280;51056;50.330;7.914;2023-02-22T05:01:30;100538.94;;;4.22;nan
64644;BME280;51056;50.330;7.914;2023-02-22T05:04:33;100535.75;;;4.12;nan
64644;BME280;51056;50.330;7.914;2023-02-22T05:07:38;100533.38;;;4.03;nan
64644;BME280;51056;50.330;7.914;2023-02-22T05:10:41;100533.53;;;3.96;nan
64644;BME280;51056;50.330;7.914;2023-02-22T05:13:44;100526.63;;;3.95;nan
64644;BME280;51056;50.330;7.914;2023-02-22T05:16:48;100528.34;;;3.96;nan
64644;BME280;51056;50.330;7.914;2023-02-22T05:19:55;100524.03;;;3.97;nan
64644;BME280;51056;50.330;7.914;2023-02-22T05:22:58;100518.00;;;3.96;nan
64644;BME280;51056;50.330;7.914;2023-02-22T05:26:02;100520.59;;;3.96;nan
64644;BME280;51056;50.330;7.914;2023-02-22T05:29:05;100514.59;;;3.94;nan
64644;BME280;51056;50.330;7.914;2023-02-22T05:32:09;100521.47;;;3.95;nan
64644;BME280;51056;50.330;7.914;2023-02-22T05:35:13;100518.09;;;3.93;nan
64644;BME280;51056;50.330;7.914;2023-02-22T05:38:17;100522.41;;;3.93;nan
64644;BME280;51056;50.330;7.914;2023-02-22T05:41:20;100526.81;;;3.89;nan
64644;BME280;51056;50.330;7.914;2023-02-22T05:44:24;100525.88;;;3.92;nan
64644;BME280;51056;50.330;7.914;2023-02-22T05:47:27;100525.03;;;3.91;nan
64644;BME280;51056;50.330;7.914;2023-02-22T05:50:31;100526.56;;;3.99;nan
64644;BME280;51056;50.330;7.914;2023-02-22T05:53:34;100524.78;;;4.01;nan
64644;BME280;51056;50.330;7.914;2023-02-22T05:56:38;100523.09;;;4.00;nan
64644;BME280;51056;50.330;7.914;2023-02-22T05:59:41;100520.47;;;4.01;nan
64644;BME280;51056;50.330;7.914;2023-02-22T06:02:45;100509.34;;;3.97;nan
64644;BME280;51056;50.330;7.914;2023-02-22T06:05:49;100513.75;;;3.94;nan
64644;BME280;51056;50.330;7.914;2023-02-22T06:08:56;100508.38;;;4.02;nan
64644;BME280;51056;50.330;7.914;2023-02-22T06:11:58;100514.44;;;4.01;nan
64644;BME280;51056;50.330;7.914;2023-02-22T06:15:02;100515.22;;;4.04;nan
64644;BME280;51056;50.330;7.914;2023-02-22T06:18:05;100520.44;;;4.03;nan
64644;BME280;51056;50.330;7.914;2023-02-22T06:21:12;100516.06;;;4.05;nan
64644;BME280;51056;50.330;7.914;2023-02-22T06:27:46;100528.13;;;4.06;nan
64644;BME280;51056;50.330;7.914;2023-02-22T06:30:50;100526.56;;;3.99;nan
64644;BME280;51056;50.330;7.914;2023-02-22T06:33:56;100524.78;;;4.01;nan
64644;BME280;51056;50.330;7.914;2023-02-22T06:37:03;100530.72;;;4.06;nan
64644;BME280;51056;50.330;7.914;2023-02-22T06:40:15;100530.66;;;4.09;nan
64644;BME280;51056;50.330;7.914;2023-02-22T06:43:23;100530.56;;;4.12;nan
64644;BME280;51056;50.330;7.914;2023-02-22T06:46:27;100526.22;;;4.12;nan
64644;BME280;51056;50.330;7.914;2023-02-22T06:49:30;100532.13;;;4.17;nan
64644;BME280;51056;50.330;7.914;2023-02-22T06:52:34;100525.13;;;4.21;nan
64644;BME280;51056;50.330;7.914;2023-02-22T06:55:37;100524.34;;;4.19;nan
64644;BME280;51056;50.330;7.914;2023-02-22T06:58:40;100523.97;;;3.99;nan
64644;BME280;51056;50.330;7.914;2023-02-22T07:01:44;100537.38;;;4.14;nan
64644;BME280;51056;50.330;7.914;2023-02-22T07:04:48;100538.47;;;4.06;nan
64644;BME280;51056;50.330;7.914;2023-02-22T07:07:53;100530.28;;;4.23;nan
64644;BME280;51056;50.330;7.914;2023-02-22T07:10:56;100537.13;;;4.24;nan
64644;BME280;51056;50.330;7.914;2023-02-22T07:13:59;100544.81;;;4.28;nan
64644;BME280;51056;50.330;7.914;2023-02-22T07:17:03;100536.22;;;4.26;nan
64644;BME280;51056;50.330;7.914;2023-02-22T07:20:06;100547.25;;;4.34;nan
64644;BME280;51056;50.330;7.914;2023-02-22T07:23:13;100534.44;;;4.28;nan
64644;BME280;51056;50.330;7.914;2023-02-22T07:26:17;100536.19;;;4.28;nan
64644;BME280;51056;50.330;7.914;2023-02-22T07:29:23;100533.69;;;4.25;nan
64644;BME280;51056;50.330;7.914;2023-02-22T07:32:27;100534.53;;;4.25;nan
64644;BME280;51056;50.330;7.914;2023-02-22T07:35:33;100527.72;;;4.21;nan
64644;BME280;51056;50.330;7.914;2023-02-22T07:38:39;100532.72;;;4.27;nan
64644;BME280;51056;50.330;7.914;2023-02-22T07:41:43;100527.81;;;4.18;nan
64644;BME280;51056;50.330;7.914;2023-02-22T07:44:58;100533.47;;;4.32;nan
64644;BME280;51056;50.330;7.914;2023-02-22T07:48:02;100531.78;;;4.31;nan
64644;BME280;51056;50.330;7.914;2023-02-22T07:51:06;100527.22;;;4.39;nan
64644;BME280;51056;50.330;7.914;2023-02-22T07:54:15;100532.25;;;4.46;nan
64644;BME280;51056;50.330;7.914;2023-02-22T07:57:18;100536.53;;;4.47;nan
64644;BME280;51056;50.330;7.914;2023-02-22T08:00:30;100535.50;;;4.54;nan
64644;BME280;51056;50.330;7.914;2023-02-22T08:03:34;100531.06;;;4.57;nan
64644;BME280;51056;50.330;7.914;2023-02-22T08:06:39;100534.28;;;4.65;nan
64644;BME280;51056;50.330;7.914;2023-02-22T08:09:44;100534.44;;;4.61;nan
64644;BME280;51056;50.330;7.914;2023-02-22T08:12:47;100526.00;;;4.53;nan
64644;BME280;51056;50.330;7.914;2023-02-22T08:15:53;100532.94;;;4.52;nan
64644;BME280;51056;50.330;7.914;2023-02-22T08:18:57;100542.19;;;4.61;nan
64644;BME280;51056;50.330;7.914;2023-02-22T08:22:00;100531.88;;;4.59;nan
64644;BME280;51056;50.330;7.914;2023-02-22T08:25:04;100528.00;;;4.74;nan
64644;BME280;51056;50.330;7.914;2023-02-22T08:28:11;100523.13;;;4.63;nan
64644;BME280;51056;50.330;7.914;2023-02-22T08:31:15;100528.44;;;4.59;nan
64644;BME280;51056;50.330;7.914;2023-02-22T08:34:19;100528.31;;;4.63;nan
64644;BME280;51056;50.330;7.914;2023-02-22T08:37:22;100525.13;;;4.54;nan
64644;BME280;51056;50.330;7.914;2023-02-22T08:40:27;100522.16;;;4.68;nan
64644;BME280;51056;50.330;7.914;2023-02-22T08:43:33;100524.41;;;4.16;nan
64644;BME280;51056;50.330;7.914;2023-02-22T08:46:37;100512.59;;;4.38;nan
64644;BME280;51056;50.330;7.914;2023-02-22T08:49:41;100512.84;;;4.29;nan
64644;BME280;51056;50.330;7.914;2023-02-22T08:52:44;100513.78;;;4.58;nan
64644;BME280;51056;50.330;7.914;2023-02-22T08:55:48;100513.63;;;4.64;nan
64644;BME280;51056;50.330;7.914;2023-02-22T08:58:51;100510.94;;;4.67;nan
64644;BME280;51056;50.330;7.914;2023-02-22T09:01:55;100510.53;;;4.82;nan
64644;BME280;51056;50.330;7.914;2023-02-22T09:04:58;100503.69;;;4.80;nan
64644;BME280;51056;50.330;7.914;2023-02-22T09:08:05;100506.59;;;4.36;nan
64644;BME280;51056;50.330;7.914;2023-02-22T09:11:08;100509.78;;;4.77;nan
64644;BME280;51056;50.330;7.914;2023-02-22T09:14:14;100507.00;;;4.21;nan
64644;BME280;51056;50.330;7.914;2023-02-22T09:17:18;100500.84;;;4.58;nan
64644;BME280;51056;50.330;7.914;2023-02-22T09:20:23;100492.41;;;4.81;nan
64644;BME280;51056;50.330;7.914;2023-02-22T09:23:27;100494.81;;;4.88;nan
64644;BME280;51056;50.330;7.914;2023-02-22T09:26:30;100495.81;;;4.83;nan
64644;BME280;51056;50.330;7.914;2023-02-22T09:29:34;100493.75;;;4.94;nan
64644;BME280;51056;50.330;7.914;2023-02-22T09:32:38;100490.47;;;4.89;nan
64644;BME280;51056;50.330;7.914;2023-02-22T09:35:43;100490.16;;;4.70;nan
64644;BME280;51056;50.330;7.914;2023-02-22T09:38:49;100488.97;;;4.80;nan
64644;BME280;51056;50.330;7.914;2023-02-22T09:42:06;100485.78;;;5.02;nan
64644;BME280;51056;50.330;7.914;2023-02-22T09:45:23;100484.44;;;5.17;nan
64644;BME280;51056;50.330;7.914;2023-02-22T09:48:33;100485.25;;;5.19;nan
64644;BME280;51056;50.330;7.914;2023-02-22T09:51:46;100477.09;;;5.31;nan
64644;BME280;51056;50.330;7.914;2023-02-22T09:58:19;100470.22;;;5.30;nan
64644;BME280;51056;50.330;7.914;2023-02-22T10:04:36;100463.88;;;5.39;nan
64644;BME280;51056;50.330;7.914;2023-02-22T10:07:49;100465.53;;;5.41;nan
64644;BME280;51056;50.330;7.914;2023-02-22T10:11:01;100467.63;;;5.30;nan
64644;BME280;51056;50.330;7.914;2023-02-22T10:17:38;100461.34;;;5.37;nan
64644;BME280;51056;50.330;7.914;2023-02-22T10:20:56;100453.50;;;5.39;nan
64644;BME280;51056;50.330;7.914;2023-02-22T10:24:32;100459.69;;;5.61;nan
64644;BME280;51056;50.330;7.914;2023-02-22T10:28:02;100452.91;;;5.57;nan
64644;BME280;51056;50.330;7.914;2023-02-22T10:31:13;100454.09;;;5.73;nan
64644;BME280;51056;50.330;7.914;2023-02-22T10:34:56;100451.38;;;5.78;nan
64644;BME280;51056;50.330;7.914;2023-02-22T10:38:25;100445.09;;;5.83;nan
64644;BME280;51056;50.330;7.914;2023-02-22T10:41:31;100449.31;;;5.88;nan
64644;BME280;51056;50.330;7.914;2023-02-22T10:44:36;100442.22;;;5.93;nan
64644;BME280;51056;50.330;7.914;2023-02-22T10:47:40;100436.50;;;6.08;nan
64644;BME280;51056;50.330;7.914;2023-02-22T10:50:45;100440.78;;;6.09;nan
64644;BME280;51056;50.330;7.914;2023-02-22T10:57:20;100438.34;;;6.29;nan
64644;BME280;51056;50.330;7.914;2023-02-22T11:00:32;100431.22;;;6.35;nan
64644;BME280;51056;50.330;7.914;2023-02-22T11:03:40;100435.34;;;6.40;nan
64644;BME280;51056;50.330;7.914;2023-02-22T11:07:08;100430.59;;;6.28;nan
64644;BME280;51056;50.330;7.914;2023-02-22T11:10:11;100422.00;;;6.51;nan
64644;BME280;51056;50.330;7.914;2023-02-22T11:13:25;100434.19;;;6.49;nan
64644;BME280;51056;50.330;7.914;2023-02-22T11:16:35;100420.00;;;6.34;nan
64644;BME280;51056;50.330;7.914;2023-02-22T11:19:46;100418.81;;;6.43;nan
64644;BME280;51056;50.330;7.914;2023-02-22T11:22:53;100405.81;;;6.66;nan
64644;BME280;51056;50.330;7.914;2023-02-22T11:26:12;100394.72;;;6.85;nan
64644;BME280;51056;50.330;7.914;2023-02-22T11:29:24;100407.66;;;7.08;nan
64644;BME280;51056;50.330;7.914;2023-02-22T11:32:28;100393.75;;;7.09;nan
64644;BME280;51056;50.330;7.914;2023-02-22T11:35:50;100387.03;;;7.04;nan
64644;BME280;51056;50.330;7.914;2023-02-22T11:38:56;100398.41;;;7.01;nan
64644;BME280;51056;50.330;7.914;2023-02-22T11:42:19;100394.13;;;7.22;nan
64644;BME280;51056;50.330;7.914;2023-02-22T11:45:25;100395.56;;;7.07;nan
64644;BME280;51056;50.330;7.914;2023-02-22T11:48:32;100390.25;;;7.10;nan
64644;BME280;51056;50.330;7.914;2023-02-22T11:51:55;100394.72;;;7.29;nan
64644;BME280;51056;50.330;7.914;2023-02-22T11:55:32;100387.88;;;7.46;nan
64644;BME280;51056;50.330;7.914;2023-02-22T11:59:01;100387.38;;;7.38;nan
64644;BME280;51056;50.330;7.914;2023-02-22T12:02:48;100382.28;;;7.35;nan
64644;BME280;51056;50.330;7.914;2023-02-22T12:09:12;100370.78;;;7.61;nan
64644;BME280;51056;50.330;7.914;2023-02-22T12:26:35;100351.75;;;8.00;nan
64644;BME280;51056;50.330;7.914;2023-02-22T12:29:43;100340.50;;;8.00;nan
64644;BME280;51056;50.330;7.914;2023-02-22T12:32:54;100342.13;;;8.02;nan
64644;BME280;51056;50.330;7.914;2023-02-22T12:36:01;100317.22;;;8.15;nan
64644;BME280;51056;50.330;7.914;2023-02-22T12:42:54;100310.53;;;8.29;nan
64644;BME280;51056;50.330;7.914;2023-02-22T12:52:43;100307.09;;;8.47;nan
64644;BME280;51056;50.330;7.914;2023-02-22T12:55:59;100303.38;;;8.53;nan
64644;BME280;51056;50.330;7.914;2023-02-22T12:59:13;100314.41;;;8.94;nan
64644;BME280;51056;50.330;7.914;2023-02-22T13:09:47;100309.19;;;9.46;nan
64644;BME280;51056;50.330;7.914;2023-02-22T13:13:16;100297.97;;;9.44;nan
64644;BME280;51056;50.330;7.914;2023-02-22T13:23:00;100290.59;;;9.86;nan
64644;BME280;51056;50.330;7.914;2023-02-22T13:26:20;100290.25;;;9.76;nan
64644;BME280;51056;50.330;7.914;2023-02-22T13:29:40;100282.13;;;9.98;nan
64644;BME280;51056;50.330;7.914;2023-02-22T13:33:04;100276.41;;;10.23;nan
64644;BME280;51056;50.330;7.914;2023-02-22T13:46:58;100259.72;;;10.73;nan
64644;BME280;51056;50.330;7.914;2023-02-22T13:50:14;100259.78;;;10.71;nan
64644;BME280;51056;50.330;7.914;2023-02-22T13:53:35;100254.16;;;10.63;nan
64644;BME280;51056;50.330;7.914;2023-02-22T13:56:43;100248.78;;;10.81;nan
64644;BME280;51056;50.330;7.914;2023-02-22T14:00:22;100244.63;;;10.92;nan
64644;BME280;51056;50.330;7.914;2023-02-22T14:03:39;100248.69;;;11.12;nan
64644;BME280;51056;50.330;7.914;2023-02-22T14:06:42;100245.59;;;11.06;nan
64644;BME280;51056;50.330;7.914;2023-02-22T14:09:58;100244.22;;;11.14;nan
64644;BME280;51056;50.330;7.914;2023-02-22T14:13:07;100236.63;;;11.10;nan
64644;BME280;51056;50.330;7.914;2023-02-22T14:19:18;100233.25;;;11.52;nan
64644;BME280;51056;50.330;7.914;2023-02-22T14:22:27;100234.00;;;11.69;nan
64644;BME280;51056;50.330;7.914;2023-02-22T14:28:49;100228.09;;;11.36;nan
64644;BME280;51056;50.330;7.914;2023-02-22T14:32:10;100224.25;;;11.56;nan
64644;BME280;51056;50.330;7.914;2023-02-22T14:35:18;100219.47;;;11.63;nan
64644;BME280;51056;50.330;7.914;2023-02-22T14:38:24;100220.03;;;11.54;nan
64644;BME280;51056;50.330;7.914;2023-02-22T14:41:28;100218.53;;;11.78;nan
64644;BME280;51056;50.330;7.914;2023-02-22T14:44:42;100222.66;;;11.82;nan
64644;BME280;51056;50.330;7.914;2023-02-22T14:51:32;100219.38;;;11.64;nan
64644;BME280;51056;50.330;7.914;2023-02-22T14:58:15;100214.81;;;11.54;nan
64644;BME280;51056;50.330;7.914;2023-02-22T15:01:23;100216.00;;;11.48;nan
64644;BME280;51056;50.330;7.914;2023-02-22T15:04:29;100211.75;;;11.61;nan
64644;BME280;51056;50.330;7.914;2023-02-22T15:07:34;100212.38;;;11.65;nan
64644;BME280;51056;50.330;7.914;2023-02-22T15:10:46;100207.97;;;11.66;nan
64644;BME280;51056;50.330;7.914;2023-02-22T15:13:53;100207.34;;;11.62;nan
64644;BME280;51056;50.330;7.914;2023-02-22T15:16:59;100206.00;;;11.55;nan
64644;BME280;51056;50.330;7.914;2023-02-22T15:20:06;100213.69;;;11.44;nan
64644;BME280;51056;50.330;7.914;2023-02-22T15:23:14;100209.31;;;11.30;nan
64644;BME280;51056;50.330;7.914;2023-02-22T15:29:24;100219.63;;;11.03;nan
64644;BME280;51056;50.330;7.914;2023-02-22T15:35:38;100214.22;;;11.06;nan
64644;BME280;51056;50.330;7.914;2023-02-22T15:38:52;100217.78;;;11.05;nan
64644;BME280;51056;50.330;7.914;2023-02-22T15:45:17;100218.47;;;10.92;nan
64644;BME280;51056;50.330;7.914;2023-02-22T15:48:24;100221.47;;;10.86;nan
64644;BME280;51056;50.330;7.914;2023-02-22T15:51:28;100221.44;;;10.72;nan
64644;BME280;51056;50.330;7.914;2023-02-22T15:55:01;100220.34;;;10.60;nan
64644;BME280;51056;50.330;7.914;2023-02-22T15:58:20;100222.31;;;10.57;nan
64644;BME280;51056;50.330;7.914;2023-02-22T16:01:36;100221.88;;;10.48;nan
64644;BME280;51056;50.330;7.914;2023-02-22T16:04:40;100230.00;;;10.44;nan
64644;BME280;51056;50.330;7.914;2023-02-22T16:07:48;100227.22;;;10.31;nan
64644;BME280;51056;50.330;7.914;2023-02-22T16:10:59;100226.47;;;10.29;nan
64644;BME280;51056;50.330;7.914;2023-02-22T16:14:05;100226.19;;;10.18;nan
64644;BME280;51056;50.330;7.914;2023-02-22T16:17:35;100223.31;;;10.07;nan
64644;BME280;51056;50.330;7.914;2023-02-22T16:20:39;100224.25;;;9.90;nan
64644;BME280;51056;50.330;7.914;2023-02-22T16:23:46;100231.63;;;9.82;nan
64644;BME280;51056;50.330;7.914;2023-02-22T16:33:26;100236.72;;;9.51;nan
64644;BME280;51056;50.330;7.914;2023-02-22T16:36:41;100242.28;;;9.45;nan
64644;BME280;51056;50.330;7.914;2023-02-22T16:39:49;100250.47;;;9.38;nan
64644;BME280;51056;50.330;7.914;2023-02-22T16:42:59;100251.81;;;9.29;nan
64644;BME280;51056;50.330;7.914;2023-02-22T16:46:04;100240.13;;;9.19;nan
64644;BME280;51056;50.330;7.914;2023-02-22T16:49:10;100251.06;;;9.10;nan
64644;BME280;51056;50.330;7.914;2023-02-22T16:52:13;100248.66;;;9.05;nan
64644;BME280;51056;50.330;7.914;2023-02-22T16:55:17;100252.66;;;8.95;nan
64644;BME280;51056;50.330;7.914;2023-02-22T16:58:23;100254.59;;;8.91;nan
64644;BME280;51056;50.330;7.914;2023-02-22T17:01:30;100259.47;;;8.80;nan
64644;BME280;51056;50.330;7.914;2023-02-22T17:04:35;100260.66;;;8.74;nan
64644;BME280;51056;50.330;7.914;2023-02-22T17:07:38;100260.66;;;8.74;nan
64644;BME280;51056;50.330;7.914;2023-02-22T17:10:44;100267.88;;;8.68;nan
64644;BME280;51056;50.330;7.914;2023-02-22T17:13:51;100262.75;;;8.66;nan
64644;BME280;51056;50.330;7.914;2023-02-22T17:16:55;100274.25;;;8.62;nan
64644;BME280;51056;50.330;7.914;2023-02-22T17:19:58;100274.63;;;8.54;nan
64644;BME280;51056;50.330;7.914;2023-02-22T17:23:05;100271.53;;;8.46;nan
64644;BME280;51056;50.330;7.914;2023-02-22T17:26:13;100272.69;;;8.41;nan
64644;BME280;51056;50.330;7.914;2023-02-22T17:29:16;100276.38;;;8.35;nan
64644;BME280;51056;50.330;7.914;2023-02-22T17:32:21;100279.13;;;8.32;nan
64644;BME280;51056;50.330;7.914;2023-02-22T17:35:24;100273.72;;;8.36;nan
64644;BME280;51056;50.330;7.914;2023-02-22T17:38:39;100288.00;;;8.28;nan
64644;BME280;51056;50.330;7.914;2023-02-22T17:41:48;100278.66;;;8.24;nan
64644;BME280;51056;50.330;7.914;2023-02-22T17:44:58;100287.50;;;8.20;nan
64644;BME280;51056;50.330;7.914;2023-02-22T17:48:01;100278.78;;;8.21;nan
64644;BME280;51056;50.330;7.914;2023-02-22T17:51:06;100288.50;;;8.17;nan
64644;BME280;51056;50.330;7.914;2023-02-22T17:54:09;100297.31;;;8.14;nan
64644;BME280;51056;50.330;7.914;2023-02-22T17:57:13;100298.16;;;8.15;nan
64644;BME280;51056;50.330;7.914;2023-02-22T18:00:17;100294.00;;;8.11;nan
64644;BME280;51056;50.330;7.914;2023-02-22T18:03:35;100298.28;;;8.12;nan
64644;BME280;51056;50.330;7.914;2023-02-22T18:06:41;100298.28;;;8.12;nan
64644;BME280;51056;50.330;7.914;2023-02-22T18:09:45;100301.38;;;8.01;nan
64644;BME280;51056;50.330;7.914;2023-02-22T18:12:49;100296.19;;;8.01;nan
64644;BME280;51056;50.330;7.914;2023-02-22T18:15:56;100292.78;;;7.99;nan
64644;BME280;51056;50.330;7.914;2023-02-22T18:19:03;100293.00;;;7.95;nan
64644;BME280;51056;50.330;7.914;2023-02-22T18:22:07;100297.00;;;7.83;nan
64644;BME280;51056;50.330;7.914;2023-02-22T18:25:36;100294.31;;;7.84;nan
64644;BME280;51056;50.330;7.914;2023-02-22T18:28:39;100300.56;;;7.80;nan
64644;BME280;51056;50.330;7.914;2023-02-22T18:31:42;100291.78;;;7.83;nan
64644;BME280;51056;50.330;7.914;2023-02-22T18:34:47;100296.34;;;7.78;nan
64644;BME280;51056;50.330;7.914;2023-02-22T18:37:52;100302.53;;;7.75;nan
64644;BME280;51056;50.330;7.914;2023-02-22T18:44:03;100298.25;;;7.74;nan
64644;BME280;51056;50.330;7.914;2023-02-22T18:47:09;100294.28;;;7.65;nan
64644;BME280;51056;50.330;7.914;2023-02-22T18:50:14;100296.16;;;7.62;nan
64644;BME280;51056;50.330;7.914;2023-02-22T18:53:21;100301.72;;;7.54;nan
64644;BME280;51056;50.330;7.914;2023-02-22T18:56:27;100302.81;;;7.49;nan
64644;BME280;51056;50.330;7.914;2023-02-22T18:59:34;100301.97;;;7.48;nan
64644;BME280;51056;50.330;7.914;2023-02-22T19:02:40;100296.78;;;7.48;nan
64644;BME280;51056;50.330;7.914;2023-02-22T19:05:46;100295.94;;;7.48;nan
64644;BME280;51056;50.330;7.914;2023-02-22T19:08:51;100300.56;;;7.41;nan
64644;BME280;51056;50.330;7.914;2023-02-22T19:11:55;100299.97;;;7.34;nan
64644;BME280;51056;50.330;7.914;2023-02-22T19:14:59;100302.00;;;7.28;nan
64644;BME280;51056;50.330;7.914;2023-02-22T19:18:12;100295.03;;;7.28;nan
64644;BME280;51056;50.330;7.914;2023-02-22T19:21:15;100299.41;;;7.28;nan